Map

Track Data

SID SEASON NUMBER BASIN SUBBASIN NAME ISO_TIME NATURE LAT LON WMO_WIND WMO_PRES WMO_AGENCY TRACK_TYPE DIST2LAND LANDFALL IFLAG USA_AGENCY USA_ATCF_ID USA_LAT USA_LON USA_RECORD USA_STATUS USA_WIND USA_PRES USA_SSHS USA_R34_NE USA_R34_SE USA_R34_SW USA_R34_NW USA_R50_NE USA_R50_SE USA_R50_SW USA_R50_NW USA_R64_NE USA_R64_SE USA_R64_SW USA_R64_NW USA_POCI USA_ROCI USA_RMW USA_EYE TOKYO_LAT TOKYO_LON TOKYO_GRADE TOKYO_WIND TOKYO_PRES TOKYO_R50_DIR TOKYO_R50_LONG TOKYO_R50_SHORT TOKYO_R30_DIR TOKYO_R30_LONG TOKYO_R30_SHORT TOKYO_LAND CMA_LAT CMA_LON CMA_CAT CMA_WIND CMA_PRES HKO_LAT HKO_LON HKO_CAT HKO_WIND HKO_PRES NEWDELHI_LAT NEWDELHI_LON NEWDELHI_GRADE NEWDELHI_WIND NEWDELHI_PRES NEWDELHI_CI NEWDELHI_DP NEWDELHI_POCI REUNION_LAT REUNION_LON REUNION_TYPE REUNION_WIND REUNION_PRES REUNION_TNUM REUNION_CI REUNION_RMW REUNION_R34_NE REUNION_R34_SE REUNION_R34_SW REUNION_R34_NW REUNION_R50_NE REUNION_R50_SE REUNION_R50_SW REUNION_R50_NW REUNION_R64_NE REUNION_R64_SE REUNION_R64_SW REUNION_R64_NW BOM_LAT BOM_LON BOM_TYPE BOM_WIND BOM_PRES BOM_TNUM BOM_CI BOM_RMW BOM_R34_NE BOM_R34_SE BOM_R34_SW BOM_R34_NW BOM_R50_NE BOM_R50_SE BOM_R50_SW BOM_R50_NW BOM_R64_NE BOM_R64_SE BOM_R64_SW BOM_R64_NW BOM_ROCI BOM_POCI BOM_EYE BOM_POS_METHOD BOM_PRES_METHOD NADI_LAT NADI_LON NADI_CAT NADI_WIND NADI_PRES WELLINGTON_LAT WELLINGTON_LON WELLINGTON_WIND WELLINGTON_PRES DS824_LAT DS824_LON DS824_STAGE DS824_WIND DS824_PRES TD9636_LAT TD9636_LON TD9636_STAGE TD9636_WIND TD9636_PRES TD9635_LAT TD9635_LON TD9635_WIND TD9635_PRES TD9635_ROCI NEUMANN_LAT NEUMANN_LON NEUMANN_CLASS NEUMANN_WIND NEUMANN_PRES MLC_LAT MLC_LON MLC_CLASS MLC_WIND MLC_PRES USA_GUST BOM_GUST BOM_GUST_PER REUNION_GUST REUNION_GUST_PER USA_SEAHGT USA_SEARAD_NE USA_SEARAD_SE USA_SEARAD_SW USA_SEARAD_NW STORM_SPEED STORM_DIR
1926257N16089 1926 44 NI BB NOT_NAMED 1926-09-14 00:00:00 TS 16.1000 89.0000 main 515 500 _________O____ -1 16.1000 89.0000 TC 30 3 306
1926257N16089 1926 44 NI BB NOT_NAMED 1926-09-14 03:00:00 TS 16.1934 88.8683 main 500 480 _________PO___ -1 16.2400 88.8025 TC 30 16.1000 89.0000 1 4 309
1926257N16089 1926 44 NI BB NOT_NAMED 1926-09-14 06:00:00 TS 16.3476 88.6763 main 480 450 _________OP___ -1 16.4000 88.6000 TC 30 16.2689 88.7909 1 5 312
1926257N16089 1926 44 NI BB NOT_NAMED 1926-09-14 09:00:00 TS 16.5272 88.4751 main 450 420 _________PP___ -1 16.5925 88.3925 TC 30 16.4402 88.5853 1 5 315
1926257N16089 1926 44 NI BB NOT_NAMED 1926-09-14 12:00:00 TS 16.7082 88.2935 main 420 390 _________OP___ -1 16.8000 88.2000 TC 30 16.6164 88.3870 1 5 318
1926257N16089 1926 44 NI BB NOT_NAMED 1926-09-14 15:00:00 TS 16.9000 88.1212 main 390 365 _________PO___ -1 17.0000 88.0424 TC 31 16.8000 88.2000 1 5 321
1926257N16089 1926 44 NI BB NOT_NAMED 1926-09-14 18:00:00 TS 17.0964 87.9637 main 365 336 _________OP___ -1 17.2000 87.9000 TC 32 16.9928 88.0274 1 5 323
1926257N16089 1926 44 NI BB NOT_NAMED 1926-09-14 21:00:00 TS 17.2962 87.8062 main 336 311 _________PP___ -1 17.4000 87.7425 TC 33 17.1924 87.8699 1 5 325
1926257N16089 1926 44 NI BB NOT_NAMED 1926-09-15 00:00:00 TS 17.4980 87.6637 main 311 286 _________OP___ -1 17.6000 87.6000 TC 34 17.3959 87.7274 1 5 329
1926257N16089 1926 44 NI BB NOT_NAMED 1926-09-15 03:00:00 TS 17.7000 87.5462 main 282 257 _________PO___ -1 17.8000 87.4925 TC 36 17.6000 87.6000 2 5 332
1926257N16089 1926 44 NI BB NOT_NAMED 1926-09-15 06:00:00 TS 17.9000 87.4387 main 257 232 _________OP___ -1 18.0000 87.4000 TC 39 17.8000 87.4774 2 5 333
1926257N16089 1926 44 NI BB NOT_NAMED 1926-09-15 09:00:00 TS 18.1000 87.3312 main 232 207 _________PP___ -1 18.2000 87.2925 TC 42 18.0000 87.3699 2 4 335
1926257N16089 1926 44 NI BB NOT_NAMED 1926-09-15 12:00:00 TS 18.3000 87.2387 main 207 187 _________OP___ -1 18.4000 87.2000 TC 45 18.2000 87.2775 2 4 339
1926257N16089 1926 44 NI BB NOT_NAMED 1926-09-15 15:00:00 TS 18.5000 87.1712 main 187 162 _________PO___ -1 18.6000 87.1425 TC 45 18.4000 87.2000 3 4 344
1926257N16089 1926 44 NI BB NOT_NAMED 1926-09-15 18:00:00 TS 18.6918 87.1238 main 162 143 _________OP___ -1 18.8000 87.1000 TC 45 18.5837 87.1475 3 4 347
1926257N16089 1926 44 NI BB NOT_NAMED 1926-09-15 21:00:00 TS 18.8775 87.0823 main 143 118 _________PP___ -1 18.9850 87.0574 TC 45 18.7699 87.1071 3 4 347
1926257N16089 1926 44 NI BB NOT_NAMED 1926-09-16 00:00:00 TS 19.0856 87.0316 main 118 100 _________OP___ -1 19.2000 87.0000 TC 45 18.9712 87.0631 3 5 346
1926257N16089 1926 44 NI BB NOT_NAMED 1926-09-16 03:00:00 TS 19.3425 86.9575 main 100 68 _________PO___ -1 19.4850 86.9150 TC 45 19.2000 87.0000 3 6 343
1926257N16089 1926 44 NI BB NOT_NAMED 1926-09-16 06:00:00 TS 19.6377 86.8504 main 68 33 _________OP___ -1 19.8000 86.8000 TC 45 19.4753 86.9007 3 6 339
1926257N16089 1926 44 NI BB NOT_NAMED 1926-09-16 09:00:00 TS 19.9388 86.7151 main 33 10 _________PP___ -1 20.1000 86.6500 TC 45 19.7775 86.7801 3 7 337
1926257N16089 1926 44 NI BB NOT_NAMED 1926-09-16 12:00:00 TS 20.2455 86.5722 main 10 0 _________OP___ -1 20.4000 86.5000 TC 45 20.0909 86.6444 3 7 338
1926257N16089 1926 44 NI BB NOT_NAMED 1926-09-16 15:00:00 TS 20.5537 86.4537 main 0 0 _________PO___ -1 20.7074 86.4074 TC 41 20.4000 86.5000 3 6 342
1926257N16089 1926 44 NI BB NOT_NAMED 1926-09-16 18:00:00 TS 20.8570 86.3589 main 0 0 _________OP___ -1 21.0000 86.3000 TC 37 20.7140 86.4178 3 6 341
1926257N16089 1926 44 NI BB NOT_NAMED 1926-09-16 21:00:00 TS 21.1481 86.2397 main 0 0 _________PP___ -1 21.2798 86.1600 TC 33 21.0163 86.3195 3 6 330
1926257N16089 1926 44 NI BB NOT_NAMED 1926-09-17 00:00:00 TS 21.3928 86.0308 main 0 0 _________OP___ -1 21.5000 85.9000 TC 30 21.2855 86.1616 3 7 308
1926257N16089 1926 44 NI BB NOT_NAMED 1926-09-17 03:00:00 TS 21.5650 85.6762 main 0 0 _________PO___ -1 21.6301 85.4525 TC 30 21.5000 85.9000 1 8 289
1926257N16089 1926 44 NI BB NOT_NAMED 1926-09-17 06:00:00 TS 21.6644 85.1973 main 0 0 _________OP___ -1 21.7000 84.9000 TC 30 21.6288 85.4945 1 9 280
1926257N16089 1926 44 NI BB NOT_NAMED 1926-09-17 09:00:00 TS 21.7263 84.6857 main 0 0 _________PP___ -1 21.7496 84.3872 TC 30 21.7030 84.9841 1 10 276
1926257N16089 1926 44 NI BB NOT_NAMED 1926-09-17 12:00:00 TS 21.7752 84.1034 main 0 0 _________OP___ -1 21.8000 83.8000 TC 30 21.7505 84.4068 1 12 276
1926257N16089 1926 44 NI BB NOT_NAMED 1926-09-17 15:00:00 TS 21.8465 83.4176 main 0 0 _________PO___ -1 21.8931 83.0352 TC 30 21.8000 83.8000 1 13 278
1926257N16089 1926 44 NI BB NOT_NAMED 1926-09-17 18:00:00 TS 21.9553 82.7124 main 0 0 _________OP___ -1 22.0000 82.3000 TC 30 21.9105 83.1248 1 13 280
1926257N16089 1926 44 NI BB NOT_NAMED 1926-09-17 21:00:00 TS 22.0697 82.0905 main 0 0 _________PP___ -1 22.1148 81.7376 TC 30 22.0246 82.4435 1 10 282
1926257N16089 1926 44 NI BB NOT_NAMED 1926-09-18 00:00:00 TS 22.1631 81.6202 main 0 0 _________OP___ -1 22.2000 81.4000 TC 30 22.1261 81.8404 1 7 282
1926257N16089 1926 44 NI BB NOT_NAMED 1926-09-18 03:00:00 TS 22.2074 81.3662 main 0 0 _________PO___ -1 22.2148 81.3324 TC 30 22.2000 81.4000 1 3 280
1926257N16089 1926 44 NI BB NOT_NAMED 1926-09-18 06:00:00 TS 22.2137 81.3135 main 0 0 _________OP___ -1 22.2000 81.4000 TC 30 22.2274 81.2270 1 1 277
1926257N16089 1926 44 NI BB NOT_NAMED 1926-09-18 09:00:00 TS 22.2143 81.3098 main 0 0 _________PP___ -1 22.2000 81.4000 TC 30 22.2286 81.2195 1 0 99
1926257N16089 1926 44 NI BB NOT_NAMED 1926-09-18 12:00:00 TS 22.2078 81.3511 main 0 0 _________OP___ -1 22.2000 81.4000 TC 30 22.2155 81.3022 1 1 100
1926257N16089 1926 44 NI BB NOT_NAMED 1926-09-18 15:00:00 TS 22.2000 81.4000 main 0 0 _________PO___ -1 22.2000 81.4000 TC 30 22.2000 81.4000 1 0 101
1926257N16089 1926 44 NI BB NOT_NAMED 1926-09-18 18:00:00 TS 22.2000 81.4000 main 0 0 _________OP___ -1 22.2000 81.4000 TC 30 22.2000 81.4000 1 0 0
1926257N16089 1926 44 NI BB NOT_NAMED 1926-09-18 21:00:00 TS 22.2000 81.4000 main 0 0 _________PP___ -1 22.2000 81.4000 TC 30 22.2000 81.4000 1 0 0
1926257N16089 1926 44 NI BB NOT_NAMED 1926-09-19 00:00:00 TS 22.2000 81.4000 main 0 0 _________OP___ -1 22.2000 81.4000 TC 30 22.2000 81.4000 1 0 0
1926257N16089 1926 44 NI BB NOT_NAMED 1926-09-19 03:00:00 TS 22.2000 81.4000 main 0 0 _________PO___ -1 22.2000 81.4000 TC 30 22.2000 81.4000 1 0 0
1926257N16089 1926 44 NI BB NOT_NAMED 1926-09-19 06:00:00 TS 22.2000 81.4000 main 0 0 _________OP___ -1 22.2000 81.4000 TC 30 22.2000 81.4000 1 0 0
1926257N16089 1926 44 NI BB NOT_NAMED 1926-09-19 09:00:00 TS 22.2000 81.4000 main 0 0 _________PP___ -1 22.2000 81.4000 TC 30 22.2000 81.4000 1 0 0
1926257N16089 1926 44 NI BB NOT_NAMED 1926-09-19 12:00:00 TS 22.2000 81.4000 main 0 0 _________OP___ -1 22.2000 81.4000 TC 30 22.2000 81.4000 1 0 0
1926257N16089 1926 44 NI BB NOT_NAMED 1926-09-19 15:00:00 TS 22.2000 81.4000 main 0 0 _________PO___ -1 22.2000 81.4000 TC 30 22.2000 81.4000 1 0 0
1926257N16089 1926 44 NI BB NOT_NAMED 1926-09-19 18:00:00 TS 22.2000 81.4000 main 0 0 _________OP___ -1 22.2000 81.4000 TC 30 22.2000 81.4000 1 0 0
1926257N16089 1926 44 NI BB NOT_NAMED 1926-09-19 21:00:00 TS 22.2000 81.4000 main 0 0 _________PP___ -1 22.2000 81.4000 TC 30 22.2000 81.4000 1 0 0
1926257N16089 1926 44 NI BB NOT_NAMED 1926-09-20 00:00:00 TS 22.2000 81.4000 main 0 0 _________OP___ -1 22.2000 81.4000 TC 30 22.2000 81.4000 1 0 0
1926257N16089 1926 44 NI BB NOT_NAMED 1926-09-20 03:00:00 TS 22.2000 81.4000 main 0 0 _________PO___ -1 22.2000 81.4000 TC 30 22.2000 81.4000 1 0 0
1926257N16089 1926 44 NI BB NOT_NAMED 1926-09-20 06:00:00 TS 22.2000 81.4000 main 0 0 _________OP___ -1 22.2000 81.4000 TC 30 22.2000 81.4000 1 0 0
1926257N16089 1926 44 NI BB NOT_NAMED 1926-09-20 09:00:00 TS 22.2000 81.4000 main 0 0 _________PP___ -1 22.2000 81.4000 TC 30 22.2000 81.4000 1 0 0
1926257N16089 1926 44 NI BB NOT_NAMED 1926-09-20 12:00:00 TS 22.2000 81.4000 main 0 0 _________OP___ -1 22.2000 81.4000 TC 30 22.2000 81.4000 1 0 0
1926257N16089 1926 44 NI BB NOT_NAMED 1926-09-20 15:00:00 TS 22.2000 81.4000 main 0 0 _________PO___ -1 22.2000 81.4000 TC 30 22.2000 81.4000 1 0 0
1926257N16089 1926 44 NI BB NOT_NAMED 1926-09-20 18:00:00 TS 22.2000 81.4000 main 0 0 _________OP___ -1 22.2000 81.4000 TC 30 22.2000 81.4000 1 0 0
1926257N16089 1926 44 NI BB NOT_NAMED 1926-09-20 21:00:00 TS 22.2000 81.4000 main 0 0 _________PP___ -1 22.2000 81.4000 TC 30 22.2000 81.4000 1 0 0
1926257N16089 1926 44 NI BB NOT_NAMED 1926-09-21 00:00:00 TS 22.2000 81.4000 main 0 0 _________OP___ -1 22.2000 81.4000 TC 30 22.2000 81.4000 1 0 0
1926257N16089 1926 44 NI BB NOT_NAMED 1926-09-21 03:00:00 TS 22.2000 81.4000 main 0 0 _________PO___ -1 22.2000 81.4000 TC 30 22.2000 81.4000 1 0 0
1926257N16089 1926 44 NI BB NOT_NAMED 1926-09-21 06:00:00 TS 22.2000 81.4000 main 0 0 _________OP___ -1 22.2000 81.4000 TC 30 22.2000 81.4000 1 0 0
1926257N16089 1926 44 NI BB NOT_NAMED 1926-09-21 09:00:00 TS 22.2000 81.4000 main 0 0 _________PP___ -1 22.2000 81.4000 TC 30 22.2000 81.4000 1 0 0
1926257N16089 1926 44 NI BB NOT_NAMED 1926-09-21 12:00:00 TS 22.2000 81.4000 main 0 0 _________OP___ -1 22.2000 81.4000 TC 30 22.2000 81.4000 1 0 0
1926257N16089 1926 44 NI BB NOT_NAMED 1926-09-21 15:00:00 TS 22.2000 81.4000 main 0 0 _________PO___ -1 22.2000 81.4000 TC 30 22.2000 81.4000 1 0 0
1926257N16089 1926 44 NI BB NOT_NAMED 1926-09-21 18:00:00 TS 22.1858 81.4040 main 0 0 _________OP___ -1 22.2000 81.4000 TC 30 22.1716 81.4081 1 0 161
1926257N16089 1926 44 NI BB NOT_NAMED 1926-09-21 21:00:00 TS 22.1625 81.4112 main 0 0 _________PP___ -1 22.1775 81.4075 TC 30 22.1475 81.4149 1 0 0
1926257N16089 1926 44 NI BB NOT_NAMED 1926-09-22 00:00:00 TS 22.1748 81.4072 main 0 0 _________OP___ -1 22.2000 81.4000 TC 30 22.1497 81.4143 1 1 339
1926257N16089 1926 44 NI BB NOT_NAMED 1926-09-22 03:00:00 TS 22.2600 81.3788 main 0 0 _________PO___ -1 22.3200 81.3575 TC 30 22.2000 81.4000 1 2 341
1926257N16089 1926 44 NI BB NOT_NAMED 1926-09-22 06:00:00 TS 22.4083 81.3242 main 0 0 _________OP___ -1 22.5000 81.3000 TC 30 22.3166 81.3483 1 3 342
1926257N16089 1926 44 NI BB NOT_NAMED 1926-09-22 09:00:00 TS 22.5838 81.2639 main 0 0 _________PP___ -1 22.6850 81.2425 TC 30 22.4825 81.2853 1 4 344
1926257N16089 1926 44 NI BB NOT_NAMED 1926-09-22 12:00:00 TS 22.7911 81.2148 main 0 0 _________OP___ -1 22.9000 81.2000 TC 30 22.6822 81.2296 1 4 352
1926257N16089 1926 44 NI BB NOT_NAMED 1926-09-22 15:00:00 TS 23.0250 81.1888 main 0 0 _________PO___ -1 23.1500 81.1775 TC 30 22.9000 81.2000 1 5 357
1926257N16089 1926 44 NI BB NOT_NAMED 1926-09-22 18:00:00 TS 23.2416 81.2059 main 0 0 _________OP___ -1 23.4000 81.2000 TC 30 23.1228 81.2103 1 4 9
1926257N16089 1926 44 NI BB NOT_NAMED 1926-09-22 21:00:00 TS 23.4535 81.2657 main 0 0 _________PP___ -1 23.6125 81.2824 TC 30 23.3475 81.2545 1 4 18
1926257N16089 1926 44 NI BB NOT_NAMED 1926-09-23 00:00:00 TS 23.6490 81.3477 main 0 0 _________OP___ -1 23.8000 81.4000 TC 30 23.5735 81.3215 1 4 20
1926257N16089 1926 44 NI BB NOT_NAMED 1926-09-23 03:00:00 NR 23.8000 81.4000 main 0 __________O___ -1 TC 23.8000 81.4000 1 3 17

About IBTrACS Database

This database is a web-friendly format of International Best Track Archive for Climate Stewardship (IBTrACS), a global best track data archive curated by NOAA dating back to 1842.

Updated: 2021-11-26